sensor_id;sensor_type;location;lat;lon;timestamp;P1;durP1;ratioP1;P2;durP2;ratioP2
40793;SDS011;26502;51.886;15.604;2022-11-23T00:04:27;55.70;;;33.40;;
40793;SDS011;26502;51.886;15.604;2022-11-23T00:09:35;63.00;;;35.60;;
40793;SDS011;26502;51.886;15.604;2022-11-23T00:14:42;64.20;;;35.20;;
40793;SDS011;26502;51.886;15.604;2022-11-23T00:19:50;60.10;;;34.30;;
40793;SDS011;26502;51.886;15.604;2022-11-23T00:24:57;57.90;;;34.00;;
40793;SDS011;26502;51.886;15.604;2022-11-23T00:30:05;59.80;;;33.70;;
40793;SDS011;26502;51.886;15.604;2022-11-23T00:35:14;57.60;;;33.60;;
40793;SDS011;26502;51.886;15.604;2022-11-23T00:40:25;65.10;;;36.60;;
40793;SDS011;26502;51.886;15.604;2022-11-23T00:45:33;66.60;;;36.30;;
40793;SDS011;26502;51.886;15.604;2022-11-23T00:50:42;69.80;;;36.30;;
40793;SDS011;26502;51.886;15.604;2022-11-23T00:55:51;54.90;;;27.80;;
40793;SDS011;26502;51.886;15.604;2022-11-23T01:01:01;67.50;;;37.50;;
40793;SDS011;26502;51.886;15.604;2022-11-23T01:06:12;71.40;;;39.50;;
40793;SDS011;26502;51.886;15.604;2022-11-23T01:11:22;69.70;;;37.50;;
40793;SDS011;26502;51.886;15.604;2022-11-23T01:16:31;65.60;;;36.30;;
40793;SDS011;26502;51.886;15.604;2022-11-23T01:21:39;66.80;;;35.70;;
40793;SDS011;26502;51.886;15.604;2022-11-23T01:26:49;75.40;;;39.90;;
40793;SDS011;26502;51.886;15.604;2022-11-23T01:31:57;74.40;;;40.30;;
40793;SDS011;26502;51.886;15.604;2022-11-23T01:37:08;76.40;;;40.70;;
40793;SDS011;26502;51.886;15.604;2022-11-23T01:42:17;79.00;;;40.40;;
40793;SDS011;26502;51.886;15.604;2022-11-23T01:47:25;80.30;;;41.50;;
40793;SDS011;26502;51.886;15.604;2022-11-23T01:52:34;73.30;;;40.40;;
40793;SDS011;26502;51.886;15.604;2022-11-23T01:57:43;76.50;;;40.70;;
40793;SDS011;26502;51.886;15.604;2022-11-23T02:07:59;73.90;;;38.60;;
40793;SDS011;26502;51.886;15.604;2022-11-23T02:13:08;77.90;;;40.40;;
40793;SDS011;26502;51.886;15.604;2022-11-23T02:18:20;73.60;;;41.70;;
40793;SDS011;26502;51.886;15.604;2022-11-23T02:23:31;77.80;;;40.80;;
40793;SDS011;26502;51.886;15.604;2022-11-23T02:28:49;68.20;;;38.20;;
40793;SDS011;26502;51.886;15.604;2022-11-23T02:34:04;67.00;;;36.90;;
40793;SDS011;26502;51.886;15.604;2022-11-23T02:39:13;62.70;;;33.70;;
40793;SDS011;26502;51.886;15.604;2022-11-23T02:44:24;65.20;;;36.60;;
40793;SDS011;26502;51.886;15.604;2022-11-23T02:49:44;71.80;;;37.20;;
40793;SDS011;26502;51.886;15.604;2022-11-23T02:54:52;68.70;;;37.10;;
40793;SDS011;26502;51.886;15.604;2022-11-23T03:00:00;62.90;;;35.80;;
40793;SDS011;26502;51.886;15.604;2022-11-23T03:05:10;68.40;;;37.40;;
40793;SDS011;26502;51.886;15.604;2022-11-23T03:10:18;65.30;;;36.70;;
40793;SDS011;26502;51.886;15.604;2022-11-23T03:15:28;70.00;;;37.50;;
40793;SDS011;26502;51.886;15.604;2022-11-23T03:20:37;64.80;;;37.40;;
40793;SDS011;26502;51.886;15.604;2022-11-23T03:25:47;76.00;;;40.50;;
40793;SDS011;26502;51.886;15.604;2022-11-23T03:31:01;73.70;;;39.30;;
40793;SDS011;26502;51.886;15.604;2022-11-23T03:36:09;68.00;;;38.30;;
40793;SDS011;26502;51.886;15.604;2022-11-23T03:41:20;65.90;;;35.90;;
40793;SDS011;26502;51.886;15.604;2022-11-23T03:46:29;76.00;;;40.60;;
40793;SDS011;26502;51.886;15.604;2022-11-23T03:51:38;70.10;;;38.10;;
40793;SDS011;26502;51.886;15.604;2022-11-23T03:56:46;70.10;;;37.50;;
40793;SDS011;26502;51.886;15.604;2022-11-23T04:01:53;67.70;;;37.00;;
40793;SDS011;26502;51.886;15.604;2022-11-23T04:07:03;69.80;;;36.60;;
40793;SDS011;26502;51.886;15.604;2022-11-23T04:12:18;65.40;;;36.20;;
40793;SDS011;26502;51.886;15.604;2022-11-23T04:17:26;62.50;;;35.70;;
40793;SDS011;26502;51.886;15.604;2022-11-23T04:22:35;57.20;;;34.30;;
40793;SDS011;26502;51.886;15.604;2022-11-23T04:27:42;65.70;;;35.00;;
40793;SDS011;26502;51.886;15.604;2022-11-23T04:32:50;63.80;;;34.00;;
40793;SDS011;26502;51.886;15.604;2022-11-23T04:37:59;62.50;;;32.90;;
40793;SDS011;26502;51.886;15.604;2022-11-23T04:43:07;63.00;;;33.60;;
40793;SDS011;26502;51.886;15.604;2022-11-23T04:48:15;68.00;;;35.00;;
40793;SDS011;26502;51.886;15.604;2022-11-23T04:53:23;60.00;;;33.70;;
40793;SDS011;26502;51.886;15.604;2022-11-23T04:58:30;56.80;;;32.90;;
40793;SDS011;26502;51.886;15.604;2022-11-23T05:03:39;62.10;;;34.30;;
40793;SDS011;26502;51.886;15.604;2022-11-23T05:08:47;65.90;;;35.10;;
40793;SDS011;26502;51.886;15.604;2022-11-23T05:14:10;59.50;;;33.30;;
40793;SDS011;26502;51.886;15.604;2022-11-23T05:19:18;63.40;;;33.20;;
40793;SDS011;26502;51.886;15.604;2022-11-23T05:24:28;62.70;;;32.60;;
40793;SDS011;26502;51.886;15.604;2022-11-23T05:29:44;61.90;;;31.70;;
40793;SDS011;26502;51.886;15.604;2022-11-23T05:34:51;58.10;;;32.40;;
40793;SDS011;26502;51.886;15.604;2022-11-23T05:40:00;60.00;;;31.70;;
40793;SDS011;26502;51.886;15.604;2022-11-23T05:45:09;59.90;;;33.30;;
40793;SDS011;26502;51.886;15.604;2022-11-23T05:50:20;63.70;;;32.30;;
40793;SDS011;26502;51.886;15.604;2022-11-23T05:55:49;62.10;;;35.20;;
40793;SDS011;26502;51.886;15.604;2022-11-23T06:00:57;64.50;;;35.30;;
40793;SDS011;26502;51.886;15.604;2022-11-23T06:06:08;65.30;;;33.20;;
40793;SDS011;26502;51.886;15.604;2022-11-23T06:11:17;62.40;;;32.50;;
40793;SDS011;26502;51.886;15.604;2022-11-23T06:16:25;66.20;;;33.90;;
40793;SDS011;26502;51.886;15.604;2022-11-23T06:21:41;68.00;;;34.10;;
40793;SDS011;26502;51.886;15.604;2022-11-23T06:26:49;62.10;;;33.80;;
40793;SDS011;26502;51.886;15.604;2022-11-23T06:31:57;70.50;;;35.60;;
40793;SDS011;26502;51.886;15.604;2022-11-23T06:37:05;63.10;;;33.50;;
40793;SDS011;26502;51.886;15.604;2022-11-23T06:42:13;59.60;;;32.00;;
40793;SDS011;26502;51.886;15.604;2022-11-23T06:47:21;69.00;;;37.10;;
40793;SDS011;26502;51.886;15.604;2022-11-23T06:52:28;69.50;;;34.60;;
40793;SDS011;26502;51.886;15.604;2022-11-23T06:57:35;72.30;;;34.90;;
40793;SDS011;26502;51.886;15.604;2022-11-23T07:02:47;68.10;;;34.30;;
40793;SDS011;26502;51.886;15.604;2022-11-23T07:08:00;61.10;;;35.20;;
40793;SDS011;26502;51.886;15.604;2022-11-23T07:13:11;62.70;;;34.20;;
40793;SDS011;26502;51.886;15.604;2022-11-23T07:18:20;66.50;;;34.10;;
40793;SDS011;26502;51.886;15.604;2022-11-23T07:23:31;67.40;;;35.10;;
40793;SDS011;26502;51.886;15.604;2022-11-23T07:28:42;68.20;;;35.40;;
40793;SDS011;26502;51.886;15.604;2022-11-23T07:33:49;70.00;;;36.00;;
40793;SDS011;26502;51.886;15.604;2022-11-23T07:38:56;64.80;;;34.40;;
40793;SDS011;26502;51.886;15.604;2022-11-23T07:44:05;66.70;;;35.90;;
40793;SDS011;26502;51.886;15.604;2022-11-23T07:49:12;65.80;;;36.70;;
40793;SDS011;26502;51.886;15.604;2022-11-23T07:54:20;68.30;;;36.50;;
40793;SDS011;26502;51.886;15.604;2022-11-23T07:59:28;60.20;;;34.80;;
40793;SDS011;26502;51.886;15.604;2022-11-23T08:04:35;68.10;;;35.40;;
40793;SDS011;26502;51.886;15.604;2022-11-23T08:09:43;67.20;;;37.10;;
40793;SDS011;26502;51.886;15.604;2022-11-23T08:14:52;67.60;;;35.40;;
40793;SDS011;26502;51.886;15.604;2022-11-23T08:20:01;74.80;;;38.80;;
40793;SDS011;26502;51.886;15.604;2022-11-23T08:25:09;69.10;;;36.80;;
40793;SDS011;26502;51.886;15.604;2022-11-23T08:30:17;65.60;;;35.80;;
40793;SDS011;26502;51.886;15.604;2022-11-23T08:35:24;68.20;;;37.50;;
40793;SDS011;26502;51.886;15.604;2022-11-23T08:40:32;76.90;;;39.60;;
40793;SDS011;26502;51.886;15.604;2022-11-23T08:45:41;70.90;;;38.20;;
40793;SDS011;26502;51.886;15.604;2022-11-23T08:50:49;73.60;;;38.20;;
40793;SDS011;26502;51.886;15.604;2022-11-23T08:55:58;70.30;;;38.00;;
40793;SDS011;26502;51.886;15.604;2022-11-23T09:01:08;76.00;;;38.90;;
40793;SDS011;26502;51.886;15.604;2022-11-23T09:06:17;64.60;;;36.30;;
40793;SDS011;26502;51.886;15.604;2022-11-23T09:11:33;69.60;;;37.00;;
40793;SDS011;26502;51.886;15.604;2022-11-23T09:16:40;64.00;;;34.80;;
40793;SDS011;26502;51.886;15.604;2022-11-23T09:21:49;63.20;;;36.20;;
40793;SDS011;26502;51.886;15.604;2022-11-23T09:26:57;63.30;;;36.60;;
40793;SDS011;26502;51.886;15.604;2022-11-23T09:32:04;68.30;;;39.00;;
40793;SDS011;26502;51.886;15.604;2022-11-23T09:37:11;64.40;;;36.50;;
40793;SDS011;26502;51.886;15.604;2022-11-23T09:42:23;57.10;;;33.20;;
40793;SDS011;26502;51.886;15.604;2022-11-23T09:47:56;66.10;;;38.00;;
40793;SDS011;26502;51.886;15.604;2022-11-23T09:53:20;67.20;;;38.60;;
40793;SDS011;26502;51.886;15.604;2022-11-23T09:58:32;74.00;;;40.70;;
40793;SDS011;26502;51.886;15.604;2022-11-23T10:03:44;62.10;;;38.50;;
40793;SDS011;26502;51.886;15.604;2022-11-23T10:08:55;64.20;;;37.90;;
40793;SDS011;26502;51.886;15.604;2022-11-23T10:14:16;64.30;;;37.80;;
40793;SDS011;26502;51.886;15.604;2022-11-23T10:19:38;58.90;;;34.80;;
40793;SDS011;26502;51.886;15.604;2022-11-23T10:25:01;57.40;;;35.90;;
40793;SDS011;26502;51.886;15.604;2022-11-23T10:30:19;71.60;;;37.60;;
40793;SDS011;26502;51.886;15.604;2022-11-23T10:35:28;63.20;;;37.10;;
40793;SDS011;26502;51.886;15.604;2022-11-23T10:40:37;63.20;;;37.80;;
40793;SDS011;26502;51.886;15.604;2022-11-23T10:45:50;64.00;;;38.20;;
40793;SDS011;26502;51.886;15.604;2022-11-23T10:51:18;56.30;;;34.20;;
40793;SDS011;26502;51.886;15.604;2022-11-23T10:56:31;58.20;;;33.70;;
40793;SDS011;26502;51.886;15.604;2022-11-23T11:01:39;57.80;;;33.90;;
40793;SDS011;26502;51.886;15.604;2022-11-23T11:07:23;57.90;;;35.10;;
40793;SDS011;26502;51.886;15.604;2022-11-23T11:12:33;57.90;;;34.00;;
40793;SDS011;26502;51.886;15.604;2022-11-23T11:17:55;57.90;;;36.00;;
40793;SDS011;26502;51.886;15.604;2022-11-23T11:23:11;64.70;;;38.10;;
40793;SDS011;26502;51.886;15.604;2022-11-23T11:28:25;59.90;;;36.00;;
40793;SDS011;26502;51.886;15.604;2022-11-23T11:33:39;60.20;;;35.40;;
40793;SDS011;26502;51.886;15.604;2022-11-23T11:38:51;62.70;;;37.30;;
40793;SDS011;26502;51.886;15.604;2022-11-23T11:44:06;59.40;;;37.50;;
40793;SDS011;26502;51.886;15.604;2022-11-23T11:49:19;62.40;;;38.60;;
40793;SDS011;26502;51.886;15.604;2022-11-23T11:54:33;62.50;;;36.20;;
40793;SDS011;26502;51.886;15.604;2022-11-23T11:59:46;61.80;;;37.40;;
40793;SDS011;26502;51.886;15.604;2022-11-23T12:04:59;63.30;;;38.60;;
40793;SDS011;26502;51.886;15.604;2022-11-23T12:10:16;62.80;;;36.60;;
40793;SDS011;26502;51.886;15.604;2022-11-23T12:15:30;58.20;;;38.30;;
40793;SDS011;26502;51.886;15.604;2022-11-23T12:20:43;65.00;;;39.30;;
40793;SDS011;26502;51.886;15.604;2022-11-23T12:26:06;68.20;;;41.80;;
40793;SDS011;26502;51.886;15.604;2022-11-23T12:31:26;67.00;;;41.30;;
40793;SDS011;26502;51.886;15.604;2022-11-23T12:42:21;65.80;;;40.70;;
40793;SDS011;26502;51.886;15.604;2022-11-23T12:47:39;61.10;;;38.40;;
40793;SDS011;26502;51.886;15.604;2022-11-23T12:52:57;56.50;;;35.20;;
40793;SDS011;26502;51.886;15.604;2022-11-23T12:58:13;67.80;;;40.40;;
40793;SDS011;26502;51.886;15.604;2022-11-23T13:09:02;63.50;;;40.90;;
40793;SDS011;26502;51.886;15.604;2022-11-23T13:14:32;61.80;;;39.80;;
40793;SDS011;26502;51.886;15.604;2022-11-23T13:19:52;64.00;;;39.20;;
40793;SDS011;26502;51.886;15.604;2022-11-23T13:25:24;59.50;;;37.50;;
40793;SDS011;26502;51.886;15.604;2022-11-23T13:30:33;62.20;;;40.40;;
40793;SDS011;26502;51.886;15.604;2022-11-23T13:35:54;60.10;;;37.10;;
40793;SDS011;26502;51.886;15.604;2022-11-23T13:41:03;63.80;;;41.30;;
40793;SDS011;26502;51.886;15.604;2022-11-23T13:47:06;64.10;;;40.40;;
40793;SDS011;26502;51.886;15.604;2022-11-23T13:52:26;63.60;;;40.10;;
40793;SDS011;26502;51.886;15.604;2022-11-23T13:57:35;65.90;;;41.10;;
40793;SDS011;26502;51.886;15.604;2022-11-23T14:02:42;70.30;;;43.20;;
40793;SDS011;26502;51.886;15.604;2022-11-23T14:07:50;66.20;;;43.20;;
40793;SDS011;26502;51.886;15.604;2022-11-23T14:12:59;68.80;;;43.80;;
40793;SDS011;26502;51.886;15.604;2022-11-23T14:24:04;69.70;;;43.20;;
40793;SDS011;26502;51.886;15.604;2022-11-23T14:29:47;68.70;;;42.90;;
40793;SDS011;26502;51.886;15.604;2022-11-23T14:35:21;66.20;;;42.30;;
40793;SDS011;26502;51.886;15.604;2022-11-23T14:40:41;63.80;;;43.20;;
40793;SDS011;26502;51.886;15.604;2022-11-23T14:46:00;63.00;;;39.60;;
40793;SDS011;26502;51.886;15.604;2022-11-23T14:51:12;63.40;;;40.30;;
40793;SDS011;26502;51.886;15.604;2022-11-23T14:56:24;63.60;;;40.60;;
40793;SDS011;26502;51.886;15.604;2022-11-23T15:01:36;67.10;;;41.80;;
40793;SDS011;26502;51.886;15.604;2022-11-23T15:06:46;67.40;;;41.00;;
40793;SDS011;26502;51.886;15.604;2022-11-23T15:12:05;70.60;;;43.10;;
40793;SDS011;26502;51.886;15.604;2022-11-23T15:17:24;65.80;;;41.50;;
40793;SDS011;26502;51.886;15.604;2022-11-23T15:22:32;69.00;;;42.90;;
40793;SDS011;26502;51.886;15.604;2022-11-23T15:27:42;65.80;;;42.00;;
40793;SDS011;26502;51.886;15.604;2022-11-23T15:32:57;71.40;;;45.10;;
40793;SDS011;26502;51.886;15.604;2022-11-23T15:38:11;64.80;;;42.40;;
40793;SDS011;26502;51.886;15.604;2022-11-23T15:43:21;68.30;;;42.60;;
40793;SDS011;26502;51.886;15.604;2022-11-23T15:48:29;68.40;;;42.70;;
40793;SDS011;26502;51.886;15.604;2022-11-23T15:53:44;69.60;;;44.60;;
40793;SDS011;26502;51.886;15.604;2022-11-23T15:58:53;71.30;;;44.20;;
40793;SDS011;26502;51.886;15.604;2022-11-23T16:04:02;68.30;;;43.00;;
40793;SDS011;26502;51.886;15.604;2022-11-23T16:09:36;72.70;;;45.60;;
40793;SDS011;26502;51.886;15.604;2022-11-23T16:14:46;69.00;;;44.90;;
40793;SDS011;26502;51.886;15.604;2022-11-23T16:19:53;73.40;;;45.80;;
40793;SDS011;26502;51.886;15.604;2022-11-23T16:25:04;64.30;;;41.70;;
40793;SDS011;26502;51.886;15.604;2022-11-23T16:30:23;71.00;;;43.80;;
40793;SDS011;26502;51.886;15.604;2022-11-23T16:35:33;69.40;;;42.00;;
40793;SDS011;26502;51.886;15.604;2022-11-23T16:40:42;71.50;;;42.90;;
40793;SDS011;26502;51.886;15.604;2022-11-23T16:45:52;70.10;;;43.20;;
40793;SDS011;26502;51.886;15.604;2022-11-23T16:51:00;70.70;;;43.60;;
40793;SDS011;26502;51.886;15.604;2022-11-23T16:56:16;66.70;;;41.90;;
40793;SDS011;26502;51.886;15.604;2022-11-23T17:01:26;77.00;;;44.40;;
40793;SDS011;26502;51.886;15.604;2022-11-23T17:06:36;72.70;;;42.70;;
40793;SDS011;26502;51.886;15.604;2022-11-23T17:11:46;84.70;;;48.40;;
40793;SDS011;26502;51.886;15.604;2022-11-23T17:16:54;87.70;;;49.20;;
40793;SDS011;26502;51.886;15.604;2022-11-23T17:22:01;75.50;;;44.80;;
40793;SDS011;26502;51.886;15.604;2022-11-23T17:27:09;90.30;;;49.90;;
40793;SDS011;26502;51.886;15.604;2022-11-23T17:32:19;94.90;;;52.30;;
40793;SDS011;26502;51.886;15.604;2022-11-23T17:37:27;83.20;;;48.30;;
40793;SDS011;26502;51.886;15.604;2022-11-23T17:42:36;91.10;;;53.10;;
40793;SDS011;26502;51.886;15.604;2022-11-23T17:47:44;95.80;;;50.30;;
40793;SDS011;26502;51.886;15.604;2022-11-23T17:52:53;103.60;;;53.70;;
40793;SDS011;26502;51.886;15.604;2022-11-23T17:58:01;100.70;;;54.00;;
40793;SDS011;26502;51.886;15.604;2022-11-23T18:03:09;108.90;;;55.10;;
40793;SDS011;26502;51.886;15.604;2022-11-23T18:08:17;111.30;;;57.30;;
40793;SDS011;26502;51.886;15.604;2022-11-23T18:13:24;107.40;;;55.70;;
40793;SDS011;26502;51.886;15.604;2022-11-23T18:18:33;119.00;;;57.50;;
40793;SDS011;26502;51.886;15.604;2022-11-23T18:23:41;112.40;;;56.10;;
40793;SDS011;26502;51.886;15.604;2022-11-23T18:28:49;105.10;;;54.90;;
40793;SDS011;26502;51.886;15.604;2022-11-23T18:33:58;104.60;;;53.60;;
40793;SDS011;26502;51.886;15.604;2022-11-23T18:39:09;109.30;;;52.80;;
40793;SDS011;26502;51.886;15.604;2022-11-23T18:44:17;99.70;;;49.50;;
40793;SDS011;26502;51.886;15.604;2022-11-23T18:49:25;104.30;;;50.20;;
40793;SDS011;26502;51.886;15.604;2022-11-23T18:54:33;100.40;;;48.30;;
40793;SDS011;26502;51.886;15.604;2022-11-23T18:59:41;96.70;;;47.10;;
40793;SDS011;26502;51.886;15.604;2022-11-23T19:04:50;108.40;;;51.90;;
40793;SDS011;26502;51.886;15.604;2022-11-23T19:09:57;103.00;;;49.80;;
40793;SDS011;26502;51.886;15.604;2022-11-23T19:15:07;106.70;;;51.90;;
40793;SDS011;26502;51.886;15.604;2022-11-23T19:20:15;114.30;;;55.30;;
40793;SDS011;26502;51.886;15.604;2022-11-23T19:25:26;112.30;;;54.20;;
40793;SDS011;26502;51.886;15.604;2022-11-23T19:30:34;115.50;;;55.40;;
40793;SDS011;26502;51.886;15.604;2022-11-23T19:35:42;107.90;;;52.30;;
40793;SDS011;26502;51.886;15.604;2022-11-23T19:40:54;103.20;;;49.60;;
40793;SDS011;26502;51.886;15.604;2022-11-23T19:46:03;98.30;;;48.80;;
40793;SDS011;26502;51.886;15.604;2022-11-23T19:51:14;97.60;;;46.90;;
40793;SDS011;26502;51.886;15.604;2022-11-23T19:56:23;99.90;;;50.40;;
40793;SDS011;26502;51.886;15.604;2022-11-23T20:01:34;97.30;;;46.50;;
40793;SDS011;26502;51.886;15.604;2022-11-23T20:06:42;92.10;;;45.60;;
40793;SDS011;26502;51.886;15.604;2022-11-23T20:11:51;88.90;;;46.00;;
40793;SDS011;26502;51.886;15.604;2022-11-23T20:16:58;83.00;;;44.10;;
40793;SDS011;26502;51.886;15.604;2022-11-23T20:22:07;91.40;;;44.20;;
40793;SDS011;26502;51.886;15.604;2022-11-23T20:27:15;88.60;;;44.60;;
40793;SDS011;26502;51.886;15.604;2022-11-23T20:32:23;87.30;;;44.40;;
40793;SDS011;26502;51.886;15.604;2022-11-23T20:37:32;92.70;;;47.00;;
40793;SDS011;26502;51.886;15.604;2022-11-23T20:42:40;91.60;;;46.30;;
40793;SDS011;26502;51.886;15.604;2022-11-23T20:47:48;90.30;;;46.40;;
40793;SDS011;26502;51.886;15.604;2022-11-23T20:53:00;99.60;;;48.10;;
40793;SDS011;26502;51.886;15.604;2022-11-23T20:58:08;96.70;;;49.80;;
40793;SDS011;26502;51.886;15.604;2022-11-23T21:03:17;92.60;;;46.20;;
40793;SDS011;26502;51.886;15.604;2022-11-23T21:08:25;108.30;;;50.80;;
40793;SDS011;26502;51.886;15.604;2022-11-23T21:13:34;104.80;;;50.90;;
40793;SDS011;26502;51.886;15.604;2022-11-23T21:19:00;103.40;;;51.30;;
40793;SDS011;26502;51.886;15.604;2022-11-23T21:24:08;108.10;;;51.70;;
40793;SDS011;26502;51.886;15.604;2022-11-23T21:29:18;102.40;;;47.90;;
40793;SDS011;26502;51.886;15.604;2022-11-23T21:34:27;102.40;;;50.00;;
40793;SDS011;26502;51.886;15.604;2022-11-23T21:39:35;112.00;;;53.80;;
40793;SDS011;26502;51.886;15.604;2022-11-23T21:44:42;118.10;;;56.10;;
40793;SDS011;26502;51.886;15.604;2022-11-23T21:49:50;105.90;;;50.40;;
40793;SDS011;26502;51.886;15.604;2022-11-23T21:54:57;114.20;;;54.30;;
40793;SDS011;26502;51.886;15.604;2022-11-23T22:00:05;110.70;;;52.70;;
40793;SDS011;26502;51.886;15.604;2022-11-23T22:05:16;113.80;;;53.80;;
40793;SDS011;26502;51.886;15.604;2022-11-23T22:10:23;109.00;;;51.80;;
40793;SDS011;26502;51.886;15.604;2022-11-23T22:15:32;119.50;;;55.30;;
40793;SDS011;26502;51.886;15.604;2022-11-23T22:20:39;116.10;;;55.90;;
40793;SDS011;26502;51.886;15.604;2022-11-23T22:25:49;120.20;;;56.90;;
40793;SDS011;26502;51.886;15.604;2022-11-23T22:30:56;117.20;;;56.00;;
40793;SDS011;26502;51.886;15.604;2022-11-23T22:36:06;113.40;;;54.30;;
40793;SDS011;26502;51.886;15.604;2022-11-23T22:41:16;118.30;;;55.70;;
40793;SDS011;26502;51.886;15.604;2022-11-23T22:46:23;112.80;;;54.70;;
40793;SDS011;26502;51.886;15.604;2022-11-23T22:51:31;117.60;;;55.00;;
40793;SDS011;26502;51.886;15.604;2022-11-23T22:56:39;118.00;;;54.80;;
40793;SDS011;26502;51.886;15.604;2022-11-23T23:01:49;117.40;;;52.30;;
40793;SDS011;26502;51.886;15.604;2022-11-23T23:07:31;112.70;;;53.80;;
40793;SDS011;26502;51.886;15.604;2022-11-23T23:12:38;117.00;;;55.30;;
40793;SDS011;26502;51.886;15.604;2022-11-23T23:17:46;121.40;;;56.50;;
40793;SDS011;26502;51.886;15.604;2022-11-23T23:22:53;117.50;;;57.30;;
40793;SDS011;26502;51.886;15.604;2022-11-23T23:28:00;126.40;;;58.30;;
40793;SDS011;26502;51.886;15.604;2022-11-23T23:33:08;124.10;;;58.50;;
40793;SDS011;26502;51.886;15.604;2022-11-23T23:38:16;122.40;;;59.00;;
40793;SDS011;26502;51.886;15.604;2022-11-23T23:43:25;116.80;;;55.80;;
40793;SDS011;26502;51.886;15.604;2022-11-23T23:48:33;131.70;;;59.60;;
40793;SDS011;26502;51.886;15.604;2022-11-23T23:53:43;125.80;;;60.80;;
40793;SDS011;26502;51.886;15.604;2022-11-23T23:58:51;129.30;;;58.60;;
